createdAt,value
2023-01-01T00:01:26.206Z,18.64
2023-01-01T00:03:54.680Z,18.77
2023-01-01T00:06:21.302Z,18.71
2023-01-01T00:08:48.500Z,18.68
2023-01-01T00:11:15.364Z,18.35
2023-01-01T00:13:44.332Z,18.45
2023-01-01T00:16:13.317Z,18.60
2023-01-01T00:18:41.004Z,18.50
2023-01-01T00:21:11.914Z,18.64
2023-01-01T00:23:38.970Z,18.59
2023-01-01T00:26:17.106Z,18.58
2023-01-01T00:28:44.788Z,18.46
2023-01-01T00:31:21.868Z,18.62
2023-01-01T00:33:53.559Z,18.37
2023-01-01T00:36:21.237Z,18.39
2023-01-01T00:38:48.130Z,18.68
2023-01-01T00:41:16.405Z,18.45
2023-01-01T00:43:43.221Z,18.12
2023-01-01T00:46:09.909Z,18.37
2023-01-01T00:48:36.708Z,18.20
2023-01-01T00:51:03.603Z,18.20
2023-01-01T00:53:30.129Z,18.37
2023-01-01T00:55:56.717Z,18.22
2023-01-01T00:58:24.732Z,18.09
2023-01-01T01:00:53.015Z,18.09
2023-01-01T01:03:28.513Z,18.34
2023-01-01T01:06:03.840Z,18.32
2023-01-01T01:08:32.787Z,18.38
2023-01-01T01:11:09.511Z,18.33
2023-01-01T01:13:37.013Z,18.27
2023-01-01T01:16:18.067Z,18.00
2023-01-01T01:18:45.231Z,17.81
2023-01-01T01:21:15.971Z,17.85
2023-01-01T01:23:42.479Z,17.96
2023-01-01T01:26:14.832Z,18.15
2023-01-01T01:28:48.875Z,17.95
2023-01-01T01:31:16.567Z,17.86
2023-01-01T01:33:43.876Z,18.30
2023-01-01T01:36:10.921Z,18.25
2023-01-01T01:38:37.374Z,17.81
2023-01-01T01:41:04.528Z,18.19
2023-01-01T01:43:30.810Z,18.26
2023-01-01T01:46:01.521Z,17.95
2023-01-01T01:48:28.592Z,17.99
2023-01-01T01:50:56.507Z,17.93
2023-01-01T01:53:28.884Z,17.95
2023-01-01T01:55:59.823Z,18.17
2023-01-01T01:58:28.417Z,18.06
2023-01-01T02:00:55.576Z,18.09
2023-01-01T02:03:31.487Z,18.14
2023-01-01T02:05:58.949Z,17.81
2023-01-01T02:08:25.825Z,17.76
2023-01-01T02:10:52.288Z,18.00
2023-01-01T02:13:19.001Z,18.04
2023-01-01T02:15:51.325Z,18.36
2023-01-01T02:18:25.722Z,18.23
2023-01-01T02:21:00.428Z,18.04
2023-01-01T02:23:46.060Z,18.18
2023-01-01T02:26:45.623Z,18.05
2023-01-01T02:29:20.476Z,18.08
2023-01-01T02:32:03.127Z,17.91
2023-01-01T02:34:35.070Z,17.82
2023-01-01T02:37:05.292Z,17.88
2023-01-01T02:39:34.686Z,18.07
2023-01-01T02:42:05.213Z,18.11
2023-01-01T02:44:36.545Z,18.17
2023-01-01T02:47:11.232Z,18.07
2023-01-01T02:49:44.911Z,17.90
2023-01-01T02:52:36.473Z,17.78
2023-01-01T02:55:12.136Z,17.86
2023-01-01T02:57:45.971Z,17.88
2023-01-01T03:00:21.674Z,18.23
2023-01-01T03:03:07.628Z,18.01
2023-01-01T03:05:59.628Z,17.55
2023-01-01T03:08:33.564Z,18.05
2023-01-01T03:11:07.505Z,18.03
2023-01-01T03:13:58.727Z,17.88
2023-01-01T03:16:27.843Z,17.61
2023-01-01T03:19:15.276Z,17.97
2023-01-01T03:21:48.810Z,17.81
2023-01-01T03:24:34.950Z,17.78
2023-01-01T03:27:08.115Z,17.84
2023-01-01T03:29:38.363Z,17.87
2023-01-01T03:32:08.623Z,18.15
2023-01-01T03:34:40.464Z,17.73
2023-01-01T03:37:11.393Z,18.16
2023-01-01T03:39:50.396Z,17.91
2023-01-01T03:42:39.477Z,18.00
2023-01-01T03:45:11.878Z,18.05
2023-01-01T03:47:38.519Z,17.85
2023-01-01T03:50:05.969Z,17.97
2023-01-01T03:52:44.737Z,17.71
2023-01-01T03:55:23.123Z,18.07
2023-01-01T03:58:11.877Z,17.79
2023-01-01T04:00:46.697Z,17.62
2023-01-01T04:03:22.323Z,17.28
2023-01-01T04:05:52.015Z,17.79
2023-01-01T04:08:21.076Z,17.39
2023-01-01T04:10:52.212Z,17.79
2023-01-01T04:13:18.528Z,17.89
2023-01-01T04:15:44.897Z,17.26
2023-01-01T04:18:11.461Z,17.92
2023-01-01T04:20:37.851Z,17.50
2023-01-01T04:23:04.350Z,17.55
2023-01-01T04:25:30.994Z,17.75
2023-01-01T04:28:03.297Z,17.55
2023-01-01T04:30:30.282Z,18.10
2023-01-01T04:32:56.713Z,17.09
2023-01-01T04:35:23.106Z,17.57
2023-01-01T04:37:49.444Z,17.75
2023-01-01T04:40:16.030Z,17.30
2023-01-01T04:42:43.385Z,17.88
2023-01-01T04:45:12.319Z,17.41
2023-01-01T04:47:38.859Z,17.85
2023-01-01T04:50:05.843Z,18.03
2023-01-01T04:52:32.208Z,17.99
2023-01-01T04:54:58.565Z,17.75
2023-01-01T04:57:24.903Z,17.54
2023-01-01T04:59:51.260Z,17.38
2023-01-01T05:02:17.737Z,17.82
2023-01-01T05:04:44.329Z,17.81
2023-01-01T05:07:10.646Z,17.71
2023-01-01T05:09:37.189Z,17.67
2023-01-01T05:12:03.610Z,17.51
2023-01-01T05:14:29.931Z,17.65
2023-01-01T05:16:56.347Z,17.49
2023-01-01T05:19:22.732Z,17.62
2023-01-01T05:21:49.107Z,17.38
2023-01-01T05:24:15.787Z,17.62
2023-01-01T05:26:44.335Z,17.41
2023-01-01T05:29:16.444Z,17.53
2023-01-01T05:31:44.519Z,17.51
2023-01-01T05:34:10.949Z,17.46
2023-01-01T05:36:41.156Z,17.57
2023-01-01T05:39:12.590Z,17.55
2023-01-01T05:41:40.109Z,17.53
2023-01-01T05:44:07.114Z,17.39
2023-01-01T05:46:33.626Z,17.32
2023-01-01T05:49:00.493Z,16.76
2023-01-01T05:51:29.126Z,17.55
2023-01-01T05:53:56.250Z,17.73
2023-01-01T05:56:23.492Z,17.39
2023-01-01T05:58:49.914Z,17.11
2023-01-01T06:01:19.832Z,17.49
2023-01-01T06:03:48.781Z,17.70
2023-01-01T06:06:18.145Z,17.30
2023-01-01T06:08:53.157Z,17.69
2023-01-01T06:11:20.286Z,17.64
2023-01-01T06:13:47.094Z,17.53
2023-01-01T06:16:14.171Z,17.63
2023-01-01T06:18:40.772Z,17.49
2023-01-01T06:21:13.667Z,17.45
2023-01-01T06:23:40.186Z,17.49
2023-01-01T06:26:18.116Z,17.94
2023-01-01T06:28:45.563Z,17.21
2023-01-01T06:31:14.115Z,17.49
2023-01-01T06:33:41.227Z,17.81
2023-01-01T06:36:10.112Z,17.62
2023-01-01T06:38:39.286Z,17.23
2023-01-01T06:41:08.041Z,17.49
2023-01-01T06:43:35.386Z,17.49
2023-01-01T06:46:20.070Z,17.65
2023-01-01T06:48:47.236Z,17.76
2023-01-01T06:51:25.240Z,17.55
2023-01-01T06:53:52.255Z,17.23
2023-01-01T06:56:19.835Z,17.52
2023-01-01T06:58:46.184Z,17.36
2023-01-01T07:01:15.779Z,17.06
2023-01-01T07:03:43.413Z,17.47
2023-01-01T07:06:10.721Z,17.22
2023-01-01T07:08:37.825Z,17.45
2023-01-01T07:11:04.319Z,17.15
2023-01-01T07:13:31.305Z,17.41
2023-01-01T07:15:57.898Z,16.84
2023-01-01T07:18:24.890Z,17.44
2023-01-01T07:20:57.347Z,17.13
2023-01-01T07:23:24.692Z,17.16
2023-01-01T07:25:52.480Z,17.12
2023-01-01T07:28:19.653Z,16.79
2023-01-01T07:30:46.259Z,16.54
2023-01-01T07:33:15.050Z,16.71
2023-01-01T07:35:41.898Z,16.36
2023-01-01T07:38:08.210Z,16.52
2023-01-01T07:40:34.574Z,16.57
2023-01-01T07:43:00.921Z,16.78
2023-01-01T07:45:27.536Z,16.56
2023-01-01T07:47:55.882Z,16.77
2023-01-01T07:50:24.161Z,16.64
2023-01-01T07:52:50.723Z,16.90
2023-01-01T07:55:18.524Z,16.73
2023-01-01T07:57:45.880Z,16.81
2023-01-01T08:00:16.290Z,17.08
2023-01-01T08:02:42.811Z,16.88
2023-01-01T08:05:09.984Z,17.09
2023-01-01T08:07:36.539Z,16.86
2023-01-01T08:10:04.854Z,16.90
2023-01-01T08:12:31.205Z,17.08
2023-01-01T08:14:57.577Z,16.90
2023-01-01T08:17:23.891Z,17.01
2023-01-01T08:19:51.749Z,16.58
2023-01-01T08:22:18.088Z,16.62
2023-01-01T08:24:44.434Z,16.92
2023-01-01T08:27:14.822Z,17.15
2023-01-01T08:29:42.025Z,17.07
2023-01-01T08:32:08.873Z,17.10
2023-01-01T08:34:35.310Z,16.82
2023-01-01T08:37:01.767Z,16.65
2023-01-01T08:39:28.235Z,16.65
2023-01-01T08:41:54.593Z,16.51
2023-01-01T08:44:20.950Z,16.89
2023-01-01T08:46:47.453Z,16.96
2023-01-01T08:49:13.804Z,16.81
2023-01-01T08:51:40.854Z,16.82
2023-01-01T08:54:07.431Z,17.02
2023-01-01T08:56:33.854Z,17.01
2023-01-01T08:59:04.376Z,16.81
2023-01-01T09:01:31.172Z,16.90
2023-01-01T09:03:57.573Z,17.11
2023-01-01T09:06:23.910Z,16.95
2023-01-01T09:08:50.297Z,16.96
2023-01-01T09:11:27.812Z,17.23
2023-01-01T09:13:54.938Z,16.80
2023-01-01T09:16:22.583Z,17.22
2023-01-01T09:18:49.360Z,17.17
2023-01-01T09:21:16.012Z,17.15
2023-01-01T09:23:42.581Z,16.99
2023-01-01T09:26:10.154Z,17.31
2023-01-01T09:28:37.305Z,17.21
2023-01-01T09:31:06.274Z,17.10
2023-01-01T09:33:35.773Z,17.14
2023-01-01T09:36:18.853Z,17.19
2023-01-01T09:38:52.240Z,16.98
2023-01-01T09:41:30.995Z,17.17
2023-01-01T09:44:00.570Z,17.12
2023-01-01T09:46:31.653Z,16.98
2023-01-01T09:49:03.424Z,17.08
2023-01-01T09:51:37.017Z,16.61
2023-01-01T09:54:33.317Z,17.09
2023-01-01T09:57:03.884Z,16.87
2023-01-01T09:59:30.479Z,16.97
2023-01-01T10:02:24.752Z,17.13
2023-01-01T10:05:11.206Z,16.97
2023-01-01T10:07:49.186Z,17.32
2023-01-01T10:10:37.262Z,17.09
2023-01-01T10:13:12.680Z,17.19
2023-01-01T10:16:06.801Z,16.83
2023-01-01T10:18:38.121Z,17.19
2023-01-01T10:21:10.685Z,17.39
2023-01-01T10:23:52.256Z,17.33
2023-01-01T10:26:22.527Z,17.36
2023-01-01T10:28:56.254Z,16.64
2023-01-01T10:31:39.467Z,17.31
2023-01-01T10:34:26.259Z,17.30
2023-01-01T10:36:55.759Z,17.23
2023-01-01T10:39:22.452Z,16.92
2023-01-01T10:41:49.099Z,17.33
2023-01-01T10:44:21.885Z,17.37
2023-01-01T10:46:54.753Z,17.73
2023-01-01T10:49:21.151Z,16.84
2023-01-01T10:51:52.743Z,17.16
2023-01-01T10:54:31.122Z,17.38
2023-01-01T10:56:58.105Z,16.84
2023-01-01T10:59:39.481Z,17.14
2023-01-01T11:02:27.274Z,16.57
2023-01-01T11:05:22.699Z,17.37
2023-01-01T11:07:49.872Z,17.63
2023-01-01T11:10:25.562Z,17.72
2023-01-01T11:13:09.392Z,17.36
2023-01-01T11:15:39.096Z,17.43
2023-01-01T11:18:10.665Z,16.96
2023-01-01T11:20:37.107Z,17.00
2023-01-01T11:23:30.146Z,17.03
2023-01-01T11:26:04.971Z,17.63
2023-01-01T11:28:34.889Z,17.69
2023-01-01T11:31:15.647Z,17.43
2023-01-01T11:33:50.626Z,16.98
2023-01-01T11:36:26.201Z,17.73
2023-01-01T11:39:23.379Z,17.68
2023-01-01T11:41:52.256Z,17.68
2023-01-01T11:44:44.510Z,17.80
2023-01-01T11:47:38.991Z,17.42
2023-01-01T11:50:14.685Z,17.40
2023-01-01T11:52:44.375Z,17.52
2023-01-01T11:55:13.834Z,17.62
2023-01-01T11:57:47.635Z,16.96
2023-01-01T12:00:16.574Z,16.59
2023-01-01T12:02:53.239Z,17.56
2023-01-01T12:05:27.080Z,17.57
2023-01-01T12:07:55.111Z,17.46
2023-01-01T12:10:26.148Z,17.65
2023-01-01T12:13:04.808Z,17.38
2023-01-01T12:15:57.825Z,17.33
2023-01-01T12:19:06.355Z,17.60
2023-01-01T12:21:35.562Z,17.45
2023-01-01T12:24:03.900Z,17.20
2023-01-01T12:26:42.715Z,17.26
2023-01-01T12:29:30.900Z,17.50
2023-01-01T12:32:06.367Z,17.30
2023-01-01T12:34:57.221Z,17.61
2023-01-01T12:37:40.596Z,17.38
2023-01-01T12:40:28.533Z,17.21
2023-01-01T12:43:16.220Z,17.31
2023-01-01T12:46:02.737Z,17.14
2023-01-01T12:49:06.567Z,17.62
2023-01-01T12:51:45.183Z,17.09
2023-01-01T12:54:38.652Z,17.32
2023-01-01T12:57:32.501Z,17.61
2023-01-01T13:00:02.676Z,17.06
2023-01-01T13:02:33.811Z,17.53
2023-01-01T13:05:07.503Z,17.67
2023-01-01T13:07:39.278Z,17.55
2023-01-01T13:10:20.245Z,17.47
2023-01-01T13:12:47.391Z,17.09
2023-01-01T13:15:53.976Z,17.62
2023-01-01T13:18:26.164Z,17.40
2023-01-01T13:21:05.802Z,17.56
2023-01-01T13:23:33.276Z,17.56
2023-01-01T13:26:18.219Z,17.41
2023-01-01T13:29:09.615Z,17.26
2023-01-01T13:31:39.417Z,17.61
2023-01-01T13:34:30.944Z,17.35
2023-01-01T13:37:19.188Z,17.57
2023-01-01T13:40:04.634Z,17.70
2023-01-01T13:42:51.713Z,17.61
2023-01-01T13:46:00.633Z,17.46
2023-01-01T13:48:35.567Z,17.46
2023-01-01T13:51:07.931Z,17.55
2023-01-01T13:53:50.463Z,17.55
2023-01-01T13:56:39.195Z,17.51
2023-01-01T13:59:20.567Z,17.42
2023-01-01T14:02:22.210Z,17.19
2023-01-01T14:04:57.610Z,17.55
2023-01-01T14:07:50.582Z,17.40
2023-01-01T14:10:36.619Z,17.46
2023-01-01T14:13:06.303Z,17.58
2023-01-01T14:15:52.334Z,17.54
2023-01-01T14:18:21.809Z,17.24
2023-01-01T14:20:51.963Z,17.17
2023-01-01T14:23:36.065Z,17.05
2023-01-01T14:26:11.979Z,16.45
2023-01-01T14:28:39.359Z,17.33
2023-01-01T14:31:12.015Z,17.22
2023-01-01T14:33:39.274Z,16.78
2023-01-01T14:36:26.379Z,17.12
2023-01-01T14:38:55.274Z,17.42
2023-01-01T14:41:24.558Z,17.33
2023-01-01T14:43:53.102Z,17.33
2023-01-01T14:46:22.339Z,16.71
2023-01-01T14:48:55.253Z,17.30
2023-01-01T14:51:25.344Z,17.38
2023-01-01T14:53:53.624Z,17.29
2023-01-01T14:56:26.840Z,16.91
2023-01-01T14:58:53.652Z,16.94
2023-01-01T15:01:25.441Z,17.41
2023-01-01T15:03:56.869Z,17.41
2023-01-01T15:06:23.416Z,16.75
2023-01-01T15:08:51.069Z,17.31
2023-01-01T15:11:19.341Z,16.70
2023-01-01T15:14:01.098Z,17.03
2023-01-01T15:16:33.304Z,16.47
2023-01-01T15:19:17.727Z,17.20
2023-01-01T15:21:44.482Z,16.67
2023-01-01T15:24:14.841Z,16.86
2023-01-01T15:26:45.006Z,16.93
2023-01-01T15:29:17.826Z,16.64
2023-01-01T15:31:53.710Z,16.95
2023-01-01T15:34:22.731Z,16.42
2023-01-01T15:36:50.085Z,16.84
2023-01-01T15:39:16.491Z,16.85
2023-01-01T15:41:53.730Z,16.85
2023-01-01T15:44:25.384Z,16.22
2023-01-01T15:46:52.613Z,16.31
2023-01-01T15:49:25.128Z,16.10
2023-01-01T15:51:56.287Z,16.29
2023-01-01T15:54:22.793Z,16.09
2023-01-01T15:56:49.845Z,15.76
2023-01-01T15:59:33.373Z,16.24
2023-01-01T16:02:13.417Z,15.84
2023-01-01T16:04:40.215Z,16.32
2023-01-01T16:07:16.078Z,16.12
2023-01-01T16:09:43.681Z,15.97
2023-01-01T16:12:10.039Z,15.98
2023-01-01T16:14:36.503Z,15.66
2023-01-01T16:17:03.019Z,15.67
2023-01-01T16:19:31.720Z,15.29
2023-01-01T16:21:58.466Z,14.98
2023-01-01T16:24:24.907Z,15.30
2023-01-01T16:26:51.449Z,15.13
2023-01-01T16:29:18.121Z,15.59
2023-01-01T16:31:47.358Z,15.06
2023-01-01T16:34:14.853Z,15.39
2023-01-01T16:36:42.847Z,15.02
2023-01-01T16:39:09.204Z,14.92
2023-01-01T16:41:35.769Z,15.40
2023-01-01T16:44:02.125Z,14.95
2023-01-01T16:46:28.950Z,15.30
2023-01-01T16:48:55.318Z,14.74
2023-01-01T16:51:28.887Z,14.88
2023-01-01T16:53:55.394Z,14.86
2023-01-01T16:56:21.771Z,14.49
2023-01-01T16:58:50.059Z,14.63
2023-01-01T17:01:19.350Z,14.79
2023-01-01T17:03:46.058Z,14.49
2023-01-01T17:06:12.778Z,14.46
2023-01-01T17:08:39.727Z,15.09
2023-01-01T17:11:15.074Z,15.01
2023-01-01T17:13:43.012Z,14.90
2023-01-01T17:16:10.742Z,15.04
2023-01-01T17:19:13.443Z,15.01
2023-01-01T17:21:24.180Z,14.82
2023-01-01T17:23:50.740Z,14.72
2023-01-01T17:26:23.205Z,14.91
2023-01-01T17:28:56.546Z,14.79
2023-01-01T17:31:26.337Z,14.72
2023-01-01T17:33:54.463Z,14.72
2023-01-01T17:36:20.850Z,14.65
2023-01-01T17:38:47.269Z,14.94
2023-01-01T17:41:15.943Z,14.86
2023-01-01T17:43:45.097Z,14.98
2023-01-01T17:46:13.992Z,14.98
2023-01-01T17:48:41.379Z,15.21
2023-01-01T17:51:08.426Z,15.06
2023-01-01T17:53:34.790Z,14.88
2023-01-01T17:56:01.182Z,14.65
2023-01-01T17:58:32.161Z,14.87
2023-01-01T18:01:10.396Z,15.23
2023-01-01T18:03:37.967Z,15.21
2023-01-01T18:06:04.815Z,14.99
2023-01-01T18:08:32.894Z,14.33
2023-01-01T18:10:59.714Z,15.31
2023-01-01T18:13:27.080Z,14.25
2023-01-01T18:15:53.842Z,14.90
2023-01-01T18:18:20.220Z,14.66
2023-01-01T18:20:46.625Z,14.74
2023-01-01T18:23:12.933Z,14.82
2023-01-01T18:25:39.301Z,14.84
2023-01-01T18:28:06.872Z,14.08
2023-01-01T18:30:33.251Z,14.04
2023-01-01T18:32:59.562Z,14.35
2023-01-01T18:35:25.958Z,14.84
2023-01-01T18:37:52.321Z,15.15
2023-01-01T18:40:18.781Z,14.76
2023-01-01T18:43:00.313Z,14.91
2023-01-01T18:45:26.751Z,15.14
2023-01-01T18:47:53.193Z,14.48
2023-01-01T18:50:27.562Z,15.06
2023-01-01T18:53:11.640Z,15.06
2023-01-01T18:55:38.383Z,14.46
2023-01-01T18:58:25.005Z,15.06
2023-01-01T19:00:55.580Z,14.96
2023-01-01T19:03:27.859Z,14.90
2023-01-01T19:05:55.495Z,14.98
2023-01-01T19:08:22.872Z,14.93
2023-01-01T19:10:50.441Z,14.49
2023-01-01T19:13:33.055Z,14.49
2023-01-01T19:16:11.664Z,15.18
2023-01-01T19:18:46.775Z,15.17
2023-01-01T19:21:13.378Z,15.12
2023-01-01T19:23:57.223Z,14.65
2023-01-01T19:26:26.106Z,15.40
2023-01-01T19:28:55.337Z,14.70
2023-01-01T19:31:22.707Z,15.39
2023-01-01T19:33:49.659Z,15.29
2023-01-01T19:36:16.221Z,15.20
2023-01-01T19:38:43.968Z,14.53
2023-01-01T19:41:11.229Z,15.27
2023-01-01T19:43:38.798Z,15.39
2023-01-01T19:46:05.345Z,15.33
2023-01-01T19:48:31.949Z,14.63
2023-01-01T19:50:58.886Z,14.37
2023-01-01T19:53:25.303Z,15.14
2023-01-01T19:55:52.395Z,14.60
2023-01-01T19:58:20.003Z,15.32
2023-01-01T20:00:47.980Z,15.03
2023-01-01T20:06:13.023Z,14.43
2023-01-01T20:08:39.687Z,14.81
2023-01-01T20:11:07.183Z,15.35
2023-01-01T20:13:33.620Z,15.35
2023-01-01T20:16:01.934Z,14.73
2023-01-01T20:18:28.803Z,14.13
2023-01-01T20:21:26.036Z,14.58
2023-01-01T20:23:53.355Z,15.18
2023-01-01T20:26:20.724Z,14.73
2023-01-01T20:29:05.753Z,14.30
2023-01-01T20:31:32.261Z,15.11
2023-01-01T20:33:58.908Z,15.32
2023-01-01T20:36:44.009Z,15.27
2023-01-01T20:39:10.663Z,15.20
2023-01-01T20:41:37.358Z,14.72
2023-01-01T20:44:03.810Z,15.26
2023-01-01T20:46:30.311Z,14.58
2023-01-01T20:48:59.361Z,14.58
2023-01-01T20:51:25.843Z,14.49
2023-01-01T20:53:55.656Z,13.63
2023-01-01T20:56:22.223Z,13.49
2023-01-01T20:58:54.518Z,14.62
2023-01-01T21:01:24.091Z,15.03
2023-01-01T21:03:50.563Z,14.83
2023-01-01T21:06:21.986Z,14.85
2023-01-01T21:08:50.960Z,14.77
2023-01-01T21:11:17.719Z,14.43
2023-01-01T21:13:45.092Z,14.95
2023-01-01T21:16:28.655Z,14.69
2023-01-01T21:18:56.021Z,14.94
2023-01-01T21:21:23.816Z,14.28
2023-01-01T21:23:53.758Z,14.91
2023-01-01T21:26:27.317Z,14.29
2023-01-01T21:28:54.674Z,13.97
2023-01-01T21:31:21.722Z,14.66
2023-01-01T21:33:48.269Z,14.38
2023-01-01T21:36:21.331Z,14.28
2023-01-01T21:38:48.946Z,15.04
2023-01-01T21:41:19.127Z,14.33
2023-01-01T21:43:48.171Z,14.64
2023-01-01T21:46:39.491Z,14.99
2023-01-01T21:49:17.944Z,15.18
2023-01-01T21:51:49.937Z,15.19
2023-01-01T21:54:36.428Z,15.20
2023-01-01T21:57:14.758Z,15.27
2023-01-01T21:59:43.358Z,15.30
2023-01-01T22:02:09.833Z,15.35
2023-01-01T22:04:45.556Z,15.27
2023-01-01T22:10:18.784Z,15.13
2023-01-01T22:12:45.649Z,15.41
2023-01-01T22:15:33.495Z,15.33
2023-01-01T22:18:11.925Z,15.14
2023-01-01T22:20:39.958Z,15.42
2023-01-01T22:23:23.085Z,15.17
2023-01-01T22:25:49.683Z,14.77
2023-01-01T22:28:21.520Z,15.17
2023-01-01T22:30:50.305Z,15.25
2023-01-01T22:33:36.774Z,15.23
2023-01-01T22:36:10.718Z,15.13
2023-01-01T22:38:37.090Z,14.10
2023-01-01T22:41:03.559Z,14.62
2023-01-01T22:43:36.091Z,14.85
2023-01-01T22:46:14.645Z,15.22
2023-01-01T22:48:41.044Z,15.14
2023-01-01T22:51:17.558Z,14.16
2023-01-01T22:53:44.177Z,14.48
2023-01-01T22:56:10.763Z,15.39
2023-01-01T22:58:37.120Z,14.79
2023-01-01T23:01:03.502Z,15.32
2023-01-01T23:03:29.863Z,14.85
2023-01-01T23:05:56.737Z,15.03
2023-01-01T23:08:24.954Z,15.52
2023-01-01T23:10:51.778Z,15.44
2023-01-01T23:13:36.766Z,14.74
2023-01-01T23:16:04.321Z,15.41
2023-01-01T23:18:36.131Z,15.41
2023-01-01T23:21:07.146Z,15.70
2023-01-01T23:23:33.811Z,15.56
2023-01-01T23:26:01.321Z,15.56
2023-01-01T23:28:30.036Z,15.67
2023-01-01T23:30:58.900Z,15.58
2023-01-01T23:33:25.521Z,15.62
2023-01-01T23:35:52.909Z,15.57
2023-01-01T23:38:19.936Z,15.49
2023-01-01T23:40:46.373Z,15.12
2023-01-01T23:43:12.795Z,15.69
2023-01-01T23:45:39.460Z,15.78
2023-01-01T23:48:06.240Z,15.62
2023-01-01T23:50:33.022Z,15.83
2023-01-01T23:52:59.700Z,15.05
2023-01-01T23:55:26.114Z,15.65
2023-01-01T23:57:52.510Z,16.04
